Time;durP1;ratioP1;P1;durP2;ratioP2;P2;SDS_P1;SDS_P2;PMS_P1;PMS_P2;Temp;Humidity;BMP_temperature;BMP_pressure;BME280_temperature;BME280_humidity;BME280_pressure;Samples;Min_cycle;Max_cycle;Signal;HPM_P1;HPM_P2
2021/07/25 00:01:27;;;;;;;17.15;14.23;;;;;;;21.66;65.44;98955.69;6065190;23;20471;-87
2021/07/25 00:03:55;;;;;;;20.45;14.52;;;;;;;21.66;65.58;98958.34;6064843;23;20102;-85
2021/07/25 00:06:30;;;;;;;17.00;14.85;;;;;;;21.67;65.60;98965.38;6065743;23;20050;-86
2021/07/25 00:08:59;;;;;;;17.98;15.20;;;;;;;21.67;65.71;98962.69;6066455;23;20027;-86
2021/07/25 00:11:27;;;;;;;26.67;15.23;;;;;;;21.67;65.77;98971.56;6065709;23;20105;-88
2021/07/25 00:14:13;;;;;;;20.40;15.75;;;;;;;21.67;65.69;98963.53;6064797;23;20033;-89
2021/07/25 00:16:39;;;;;;;22.15;15.45;;;;;;;21.68;65.72;98962.53;6065691;23;20485;-87
2021/07/25 00:19:12;;;;;;;22.30;17.17;;;;;;;21.70;66.08;98963.19;6064858;23;20027;-88
2021/07/25 00:21:41;;;;;;;23.70;18.55;;;;;;;21.69;66.00;98956.19;6067147;23;20038;-90
2021/07/25 00:24:09;;;;;;;19.88;17.13;;;;;;;21.72;65.69;98963.88;6064662;23;20014;-89
2021/07/25 00:26:45;;;;;;;23.90;20.20;;;;;;;21.73;65.69;98956.66;6064962;23;20050;-87
2021/07/25 00:29:12;;;;;;;25.42;20.83;;;;;;;21.74;65.75;98964.53;6064645;23;20491;-86
2021/07/25 00:31:42;;;;;;;26.15;19.83;;;;;;;21.73;65.82;98960.19;6065150;23;20030;-87
2021/07/25 00:34:10;;;;;;;27.70;20.45;;;;;;;21.73;65.72;98965.56;6064414;23;20025;-85
2021/07/25 00:36:36;;;;;;;25.02;20.80;;;;;;;21.73;65.69;98964.69;6065608;23;20034;-86
2021/07/25 00:39:07;;;;;;;24.63;20.38;;;;;;;21.73;65.94;98965.56;6065679;23;20384;-85
2021/07/25 00:41:34;;;;;;;28.08;21.58;;;;;;;21.73;65.65;98959.34;6066724;23;20101;-86
2021/07/25 00:44:01;;;;;;;26.33;21.20;;;;;;;21.71;66.07;98956.81;6066865;23;20023;-87
2021/07/25 00:46:31;;;;;;;25.60;22.58;;;;;;;21.71;65.93;98959.50;6065969;23;20023;-88
2021/07/25 00:49:00;;;;;;;28.85;22.25;;;;;;;21.72;65.98;98969.22;6066495;23;20027;-87
2021/07/25 00:51:27;;;;;;;30.08;22.38;;;;;;;21.74;66.13;98971.72;6066588;23;20030;-87
2021/07/25 00:53:57;;;;;;;27.35;22.88;;;;;;;21.73;65.98;98956.66;6065294;23;20118;-85
2021/07/25 00:56:23;;;;;;;31.05;23.92;;;;;;;21.73;65.95;98970.06;6064726;23;20032;-86
2021/07/25 00:58:50;;;;;;;32.25;24.70;;;;;;;21.71;66.16;98967.53;6065035;23;20033;-86
2021/07/25 01:01:21;;;;;;;32.90;24.58;;;;;;;21.69;66.41;98958.84;6066549;23;20451;-85
2021/07/25 01:04:16;;;;;;;33.08;26.48;;;;;;;21.64;66.82;98960.41;6066223;23;20022;-88
2021/07/25 01:06:48;;;;;;;33.65;26.33;;;;;;;21.66;66.55;98956.53;6066289;23;20030;-86
2021/07/25 01:09:44;;;;;;;33.20;26.50;;;;;;;21.60;67.29;98960.75;6066443;23;20465;-86
2021/07/25 01:12:23;;;;;;;35.55;26.55;;;;;;;21.59;67.03;98963.59;6047264;23;20023;-86
2021/07/25 01:14:53;;;;;;;35.67;27.98;;;;;;;21.57;66.41;98950.38;6066544;23;20050;-87
2021/07/25 01:17:26;;;;;;;44.83;28.33;;;;;;;21.53;66.79;98954.44;6066274;23;20023;-87
2021/07/25 01:19:54;;;;;;;39.13;29.35;;;;;;;21.53;66.38;98954.44;6066185;23;20582;-85
2021/07/25 01:22:20;;;;;;;37.78;31.52;;;;;;;21.50;66.36;98953.97;6064844;23;20023;-87
2021/07/25 01:24:48;;;;;;;37.70;29.27;;;;;;;21.47;66.64;98947.13;6066017;23;20042;-85
2021/07/25 01:27:28;;;;;;;36.78;30.48;;;;;;;21.39;67.56;98955.22;6064767;23;20351;-85
2021/07/25 01:29:58;;;;;;;39.75;29.55;;;;;;;21.40;66.85;98960.41;6066232;23;20030;-87
2021/07/25 01:32:26;;;;;;;36.70;30.50;;;;;;;21.39;66.86;98965.94;6065334;23;20027;-85
2021/07/25 01:34:57;;;;;;;37.92;29.65;;;;;;;21.37;67.20;98971.44;6064266;23;20022;-86
2021/07/25 01:37:29;;;;;;;39.42;30.05;;;;;;;21.34;67.68;98963.78;6066304;23;20361;-86
2021/07/25 01:39:56;;;;;;;34.20;28.85;;;;;;;21.35;67.11;98971.63;6066271;23;20466;-86
2021/07/25 01:42:30;;;;;;;36.17;30.13;;;;;;;21.32;67.94;98968.47;6064362;23;20022;-86
2021/07/25 01:44:59;;;;;;;41.55;30.08;;;;;;;21.33;67.32;98970.97;6065749;23;20025;-86
2021/07/25 01:47:26;;;;;;;41.72;31.10;;;;;;;21.33;67.28;98975.50;6065475;23;20404;-85
2021/07/25 01:49:53;;;;;;;41.55;28.50;;;;;;;21.31;67.33;98978.34;6064520;23;20030;-85
2021/07/25 01:52:19;;;;;;;39.17;28.33;;;;;;;21.31;67.19;98982.88;6065874;23;20031;-85
2021/07/25 01:54:47;;;;;;;36.65;28.25;;;;;;;21.30;67.31;98981.22;6066007;23;20291;-88
2021/07/25 01:57:13;;;;;;;39.35;29.20;;;;;;;21.29;67.67;98980.38;6064936;23;20408;-84
2021/07/25 01:59:44;;;;;;;36.80;27.58;;;;;;;21.29;67.39;98974.19;6066574;23;20031;-88
2021/07/25 02:02:11;;;;;;;38.45;28.80;;;;;;;21.30;67.40;98978.53;6064634;23;20031;-84
2021/07/25 02:04:37;;;;;;;34.00;26.10;;;;;;;21.30;67.35;98978.53;6064615;23;20047;-86
2021/07/25 02:07:05;;;;;;;39.70;26.80;;;;;;;21.31;67.33;98982.88;6064569;23;20537;-84
2021/07/25 02:09:36;;;;;;;36.45;26.45;;;;;;;21.30;67.60;98983.91;6064690;23;20038;-87
2021/07/25 02:12:06;;;;;;;35.42;26.58;;;;;;;21.32;67.28;98985.38;6066073;23;20114;-86
2021/07/25 02:14:35;;;;;;;31.48;25.02;;;;;;;21.31;66.93;98982.88;6064314;23;20042;-87
2021/07/25 02:17:03;;;;;;;35.63;26.73;;;;;;;21.28;66.97;98984.06;6065975;23;20386;-85
2021/07/25 02:19:30;;;;;;;38.70;25.67;;;;;;;21.25;66.78;98984.41;6065109;23;20023;-87
2021/07/25 02:21:57;;;;;;;33.08;25.52;;;;;;;21.20;66.69;98976.09;6065697;23;20506;-86
2021/07/25 02:24:24;;;;;;;34.55;25.52;;;;;;;21.17;66.85;98981.78;6066208;23;20019;-86
2021/07/25 02:26:52;;;;;;;33.40;25.67;;;;;;;21.11;66.86;98980.63;6064554;23;20042;-84
2021/07/25 02:29:19;;;;;;;36.78;26.08;;;;;;;21.07;67.11;98976.66;6064863;23;20033;-85
2021/07/25 02:31:46;;;;;;;32.33;24.40;;;;;;;21.02;67.12;98981.69;6065190;23;20022;-83
2021/07/25 02:34:12;;;;;;;33.75;25.95;;;;;;;20.98;67.14;98981.22;6067018;23;20375;-86
2021/07/25 02:36:39;;;;;;;36.15;25.10;;;;;;;20.95;67.24;98982.41;6066325;23;20022;-84
2021/07/25 02:39:06;;;;;;;37.28;25.52;;;;;;;20.93;67.37;98983.59;6064905;23;20440;-84
2021/07/25 02:41:33;;;;;;;35.72;24.55;;;;;;;20.90;67.67;98984.75;6064498;23;20045;-84
2021/07/25 02:44:00;;;;;;;29.42;24.55;;;;;;;20.88;67.73;98984.09;6065071;23;20086;-84
2021/07/25 02:46:26;;;;;;;38.42;25.58;;;;;;;20.88;67.38;98988.59;6064814;23;20022;-83
2021/07/25 02:48:53;;;;;;;36.05;27.65;;;;;;;20.85;67.83;98984.41;6066753;23;20408;-85
2021/07/25 02:51:19;;;;;;;36.38;25.58;;;;;;;20.83;67.64;98986.44;6068976;23;20455;-86
2021/07/25 02:53:46;;;;;;;34.97;25.00;;;;;;;20.80;67.84;98984.94;6067488;23;20030;-85
2021/07/25 02:56:13;;;;;;;32.92;24.45;;;;;;;20.78;67.80;98989.63;6066577;23;20031;-86
2021/07/25 02:58:39;;;;;;;32.33;25.40;;;;;;;;;;6064058;23;20027;-86
2021/07/25 03:01:11;;;;;;;32.63;23.67;;;;;;;20.70;68.36;98993.16;6064573;23;20074;-85
2021/07/25 03:03:39;;;;;;;35.78;24.95;;;;;;;20.70;67.84;98986.97;6064474;23;20034;-85
2021/07/25 03:06:05;;;;;;;32.97;25.13;;;;;;;20.68;67.80;98995.16;6067747;23;20103;-86
2021/07/25 03:08:33;;;;;;;32.35;25.83;;;;;;;20.66;68.13;98991.00;6067206;23;20027;-87
2021/07/25 03:11:01;;;;;;;32.42;25.95;;;;;;;20.65;68.11;98998.19;6068162;23;20038;-86
2021/07/25 03:13:28;;;;;;;33.42;25.92;;;;;;;20.64;68.22;98996.50;6066157;23;20032;-87
2021/07/25 03:15:59;;;;;;;44.33;28.13;;;;;;;20.64;68.13;98996.50;6066935;23;20019;-86
2021/07/25 03:18:26;;;;;;;35.03;27.42;;;;;;;20.64;68.53;99001.03;6065793;23;20023;-86
2021/07/25 03:20:53;;;;;;;39.95;28.05;;;;;;;20.63;68.65;98997.53;6068066;23;20031;-86
2021/07/25 03:23:19;;;;;;;36.20;27.55;;;;;;;20.64;68.39;98998.38;6067292;23;20059;-88
2021/07/25 03:25:46;;;;;;;40.83;28.95;;;;;;;20.63;68.49;98996.72;6065612;23;20086;-86
2021/07/25 03:28:12;;;;;;;39.47;28.08;;;;;;;20.62;68.62;98995.88;6065615;23;20031;-85
2021/07/25 03:30:39;;;;;;;41.92;31.85;;;;;;;20.63;68.65;98991.38;6066724;23;20027;-85
2021/07/25 03:33:07;;;;;;;36.83;28.92;;;;;;;20.64;68.58;98998.38;6065548;23;20038;-85
2021/07/25 03:35:35;;;;;;;42.47;33.47;;;;;;;20.65;68.61;99003.56;6065546;23;20019;-85
2021/07/25 03:38:02;;;;;;;46.63;33.13;;;;;;;20.65;68.78;99003.56;6065921;23;20033;-84
2021/07/25 03:40:29;;;;;;;41.50;32.47;;;;;;;20.66;68.69;99010.56;6066854;23;20025;-85
2021/07/25 03:42:57;;;;;;;47.13;34.15;;;;;;;20.65;68.79;99002.69;6066154;23;20494;-85
2021/07/25 03:45:24;;;;;;;57.80;34.60;;;;;;;20.65;68.97;98998.19;6065689;23;20045;-86
2021/07/25 03:47:52;;;;;;;45.17;34.08;;;;;;;20.65;69.05;99008.91;6067481;23;20447;-86
2021/07/25 03:50:19;;;;;;;66.35;34.97;;;;;;;20.66;68.83;99007.03;6065726;23;20023;-85
2021/07/25 03:52:46;;;;;;;56.67;35.50;;;;;;;20.66;69.10;99004.38;6065844;23;20494;-85
2021/07/25 03:55:13;;;;;;;56.00;35.50;;;;;;;20.67;69.24;99008.72;6067227;23;20023;-84
2021/07/25 03:57:40;;;;;;;61.45;36.28;;;;;;;20.66;69.29;99010.56;6066131;23;20037;-85
2021/07/25 04:00:07;;;;;;;70.57;35.92;;;;;;;20.67;69.21;99004.19;6067321;23;20477;-85
2021/07/25 04:02:33;;;;;;;85.90;38.53;;;;;;;20.67;69.35;99006.06;6066903;23;20031;-86
2021/07/25 04:05:00;;;;;;;60.53;38.35;;;;;;;20.68;69.55;99010.38;6065269;23;20023;-85
2021/07/25 04:07:27;;;;;;;54.95;37.13;;;;;;;20.67;69.56;99003.38;6065235;23;20022;-85
2021/07/25 04:09:53;;;;;;;53.15;40.35;;;;;;;20.68;69.53;99002.38;6068018;23;20037;-84
2021/07/25 04:12:20;;;;;;;59.22;39.55;;;;;;;20.68;69.47;99005.03;6065352;23;20023;-84
2021/07/25 04:14:47;;;;;;;56.88;37.80;;;;;;;20.68;69.75;98989.81;6066975;23;20023;-84
2021/07/25 04:17:14;;;;;;;57.90;40.85;;;;;;;20.69;69.68;99001.34;6066316;23;20051;-86
2021/07/25 04:19:41;;;;;;;50.28;36.17;;;;;;;20.71;69.68;98999.34;6067266;23;20038;-85
2021/07/25 04:22:07;;;;;;;56.90;38.75;;;;;;;20.73;69.69;98991.97;6065143;23;20031;-84
2021/07/25 04:24:34;;;;;;;56.08;40.05;;;;;;;20.77;69.57;98995.97;6067026;23;20351;-85
2021/07/25 04:27:01;;;;;;;59.60;41.05;;;;;;;20.79;69.79;99001.16;6066002;23;20027;-83
2021/07/25 04:29:28;;;;;;;54.55;40.53;;;;;;;20.81;69.72;99007.16;6067292;23;20026;-84
2021/07/25 04:31:54;;;;;;;56.17;40.97;;;;;;;20.82;69.62;99011.53;6066637;23;20030;-84
2021/07/25 04:34:23;;;;;;;59.17;41.92;;;;;;;20.83;69.61;99005.16;6065054;23;20025;-87
2021/07/25 04:36:50;;;;;;;54.67;38.78;;;;;;;20.83;69.85;99005.97;6065471;23;20031;-86
2021/07/25 04:39:17;;;;;;;59.95;40.28;;;;;;;20.86;69.61;99012.00;6064434;23;20031;-87
2021/07/25 04:41:56;;;;;;;57.63;38.28;;;;;;;20.89;69.90;99011.69;6067196;23;20205;-85
2021/07/25 04:44:38;;;;;;;57.35;39.63;;;;;;;20.89;70.19;99007.16;6066389;23;20570;-87
2021/07/25 04:47:12;;;;;;;54.33;39.13;;;;;;;20.93;69.96;99008.47;6065093;23;20022;-84
2021/07/25 04:50:02;;;;;;;58.05;40.85;;;;;;;20.94;70.26;99009.31;6066983;23;20030;-87
2021/07/25 04:52:39;;;;;;;61.97;39.45;;;;;;;21.00;69.92;99007.81;6065918;23;20030;-87
2021/07/25 04:55:09;;;;;;;61.08;42.35;;;;;;;21.04;69.32;99009.13;6065236;23;20022;-84
2021/07/25 04:57:41;;;;;;;58.65;41.67;;;;;;;21.04;69.66;99009.94;6065711;23;20034;-85
2021/07/25 05:00:14;;;;;;;60.90;42.80;;;;;;;21.04;69.73;99014.47;6066882;23;20037;-84
2021/07/25 05:02:43;;;;;;;56.10;38.47;;;;;;;21.05;69.08;99014.28;6064769;23;20034;-86
2021/07/25 05:05:10;;;;;;;57.08;39.65;;;;;;;21.06;69.27;99023.16;6064575;23;20029;-85
2021/07/25 05:07:41;;;;;;;57.88;40.33;;;;;;;21.05;69.52;99013.47;6065161;23;20023;-86
2021/07/25 05:10:10;;;;;;;50.33;37.65;;;;;;;21.06;69.04;99010.63;6065609;23;20049;-84
2021/07/25 05:12:43;;;;;;;51.45;37.42;;;;;;;21.06;69.21;99012.44;6065208;23;20458;-85
2021/07/25 05:15:28;;;;;;;47.63;35.80;;;;;;;21.05;69.41;99008.09;6066099;23;20034;-86
2021/07/25 05:18:09;;;;;;;52.92;36.28;;;;;;;21.03;69.57;99012.78;6064746;23;20034;-85
2021/07/25 05:20:43;;;;;;;50.92;36.42;;;;;;;21.04;69.25;99023.31;6065089;23;20031;-84
2021/07/25 05:23:24;;;;;;;52.95;36.13;;;;;;;21.02;69.71;99022.66;6067192;23;20022;-86
2021/07/25 05:25:53;;;;;;;49.13;37.00;;;;;;;21.04;69.40;99033.22;6064950;23;20031;-84
2021/07/25 05:28:22;;;;;;;47.90;36.10;;;;;;;21.05;69.30;99037.53;6065159;23;20033;-86
2021/07/25 05:30:54;;;;;;;52.30;37.10;;;;;;;21.04;69.52;99042.03;6066969;23;20023;-85
2021/07/25 05:33:21;;;;;;;49.38;36.25;;;;;;;21.06;69.19;99039.19;6065382;23;20038;-85
2021/07/25 05:35:49;;;;;;;48.92;34.78;;;;;;;21.07;69.10;99049.72;6065612;23;20027;-84
2021/07/25 05:38:17;;;;;;;44.63;33.47;;;;;;;21.08;69.22;99039.84;6064742;23;20023;-87
2021/07/25 05:40:44;;;;;;;48.63;33.88;;;;;;;21.09;69.08;99044.22;6065866;23;20042;-86
2021/07/25 05:43:11;;;;;;;45.78;33.28;;;;;;;21.10;69.00;99037.84;6065891;23;20358;-85
2021/07/25 05:45:38;;;;;;;50.28;33.53;;;;;;;21.11;69.15;99047.53;6066140;23;20033;-86
2021/07/25 05:48:05;;;;;;;46.40;32.25;;;;;;;21.12;68.96;99043.84;6066167;23;20029;-84
2021/07/25 05:50:31;;;;;;;47.47;32.92;;;;;;;21.13;68.96;99045.53;6066544;23;20034;-85
2021/07/25 05:52:59;;;;;;;45.47;33.17;;;;;;;21.15;69.05;99051.53;6064418;23;20047;-85
2021/07/25 05:55:29;;;;;;;47.15;33.97;;;;;;;21.16;69.18;99053.19;6064164;23;20019;-85
2021/07/25 05:57:56;;;;;;;49.40;35.13;;;;;;;21.18;69.16;99061.91;6066655;23;20034;-83
2021/07/25 06:00:23;;;;;;;51.17;35.42;;;;;;;21.21;68.83;99064.22;6064622;23;20034;-84
2021/07/25 06:02:51;;;;;;;42.13;32.53;;;;;;;21.22;68.83;99070.41;6066161;23;20026;-87
2021/07/25 06:05:18;;;;;;;46.90;34.25;;;;;;;21.23;68.77;99061.34;6066097;23;20082;-82
2021/07/25 06:07:45;;;;;;;43.17;32.83;;;;;;;21.25;68.89;99061.19;6066766;23;20033;-84
2021/07/25 06:10:12;;;;;;;42.38;31.67;;;;;;;21.25;68.82;99054.00;6064611;23;20058;-86
2021/07/25 06:12:39;;;;;;;46.05;33.40;;;;;;;21.27;68.81;99053.84;6064962;23;20031;-86
2021/07/25 06:15:07;;;;;;;41.55;30.77;;;;;;;21.28;68.76;99069.72;6064011;23;20409;-85
2021/07/25 06:17:33;;;;;;;49.95;30.10;;;;;;;21.31;68.69;99069.34;6064675;23;20037;-88
2021/07/25 06:20:01;;;;;;;40.88;29.75;;;;;;;21.33;68.63;99061.16;6064676;23;20031;-83
2021/07/25 06:22:36;;;;;;;41.53;27.02;;;;;;;21.33;68.85;99078.06;6066132;23;20034;-84
2021/07/25 06:25:04;;;;;;;43.47;31.17;;;;;;;21.39;68.60;99076.53;6065777;23;20027;-85
2021/07/25 06:27:36;;;;;;;39.88;30.27;;;;;;;21.41;68.58;99076.34;6067667;23;20363;-85
2021/07/25 06:30:04;;;;;;;44.28;31.40;;;;;;;21.43;68.52;99077.84;6067635;23;20026;-85
2021/07/25 06:32:31;;;;;;;41.90;30.38;;;;;;;21.45;68.01;99078.50;6068067;23;20037;-85
2021/07/25 06:34:57;;;;;;;42.90;31.15;;;;;;;21.46;68.47;99080.16;6065786;23;20023;-87
2021/07/25 06:37:24;;;;;;;43.15;29.38;;;;;;;21.49;68.51;99078.97;6066095;23;20027;-87
2021/07/25 06:39:51;;;;;;;40.08;29.08;;;;;;;21.52;68.48;99083.97;6065973;23;20027;-85
2021/07/25 06:42:18;;;;;;;40.92;28.70;;;;;;;21.54;68.12;99086.50;6068072;23;20023;-87
2021/07/25 06:44:45;;;;;;;39.38;28.10;;;;;;;21.57;67.95;99083.47;6067928;23;20030;-87
2021/07/25 06:47:11;;;;;;;32.47;25.98;;;;;;;21.57;67.81;99075.44;6068225;23;20023;-87
2021/07/25 06:49:38;;;;;;;33.22;25.80;;;;;;;21.59;67.89;99084.09;6066332;23;20027;-89
2021/07/25 06:52:05;;;;;;;33.75;25.02;;;;;;;21.61;67.71;99082.09;6065959;23;20458;-86
2021/07/25 06:54:32;;;;;;;31.98;24.92;;;;;;;21.63;67.97;99082.75;6066202;23;20031;-87
2021/07/25 06:56:59;;;;;;;31.60;25.77;;;;;;;21.65;67.68;99086.09;6066324;23;20102;-87
2021/07/25 06:59:26;;;;;;;35.05;25.08;;;;;;;21.68;67.79;99085.72;6068142;23;20042;-87
2021/07/25 07:01:52;;;;;;;33.90;24.45;;;;;;;21.71;67.70;99095.25;6068224;23;20359;-86
2021/07/25 07:04:19;;;;;;;29.60;23.17;;;;;;;21.72;67.50;99095.09;6067617;23;20022;-87
2021/07/25 07:06:46;;;;;;;29.67;22.35;;;;;;;21.75;67.49;99091.22;6067374;23;20023;-85
2021/07/25 07:09:13;;;;;;;31.42;23.08;;;;;;;21.77;67.17;99093.75;6066818;23;20034;-86
2021/07/25 07:11:39;;;;;;;30.80;21.13;;;;;;;21.79;67.23;99092.56;6065788;23;20022;-85
2021/07/25 07:14:08;;;;;;;26.38;20.45;;;;;;;21.83;67.13;99095.72;6067459;23;20031;-86
2021/07/25 07:16:35;;;;;;;25.13;19.02;;;;;;;21.86;67.11;99100.72;6067898;23;20029;-86
2021/07/25 07:19:04;;;;;;;24.60;18.60;;;;;;;21.89;66.89;99102.19;6066830;23;20023;-87
2021/07/25 07:21:30;;;;;;;20.42;16.05;;;;;;;21.92;66.91;99097.34;6067495;23;20026;-86
2021/07/25 07:23:57;;;;;;;23.27;16.85;;;;;;;21.96;66.33;99095.13;6065744;23;20094;-86
2021/07/25 07:26:24;;;;;;;22.42;17.58;;;;;;;21.99;66.41;99092.91;6067426;23;20205;-86
2021/07/25 07:28:51;;;;;;;23.63;17.85;;;;;;;22.04;66.77;99100.44;6067028;23;20359;-87
2021/07/25 07:31:18;;;;;;;23.90;19.17;;;;;;;22.09;66.71;99097.22;6065941;23;20027;-84
2021/07/25 07:33:46;;;;;;;20.15;15.63;;;;;;;22.14;66.73;99100.19;6067081;23;20407;-86
2021/07/25 07:36:13;;;;;;;22.90;17.20;;;;;;;22.20;66.06;99104.81;6065208;23;20026;-88
2021/07/25 07:38:39;;;;;;;19.13;15.85;;;;;;;22.25;66.06;99086.34;6065284;23;20030;-85
2021/07/25 07:41:06;;;;;;;24.20;16.35;;;;;;;22.31;66.08;99097.38;6067535;23;20102;-85
2021/07/25 07:43:33;;;;;;;21.02;17.35;;;;;;;22.37;66.12;99097.50;6065650;23;20026;-83
2021/07/25 07:45:59;;;;;;;23.15;15.50;;;;;;;22.42;65.83;99090.75;6065600;23;20019;-85
2021/07/25 07:48:26;;;;;;;20.42;15.00;;;;;;;22.46;65.77;99098.25;6065261;23;20058;-86
2021/07/25 07:50:54;;;;;;;17.35;14.70;;;;;;;22.54;65.41;99099.19;6066875;23;20030;-88
2021/07/25 07:53:20;;;;;;;17.45;15.15;;;;;;;22.59;65.54;99103.03;6065774;23;20106;-85
2021/07/25 07:55:48;;;;;;;16.02;14.32;;;;;;;22.65;65.58;99099.59;6066383;23;20459;-87
2021/07/25 07:58:14;;;;;;;15.88;13.20;;;;;;;22.72;65.83;99094.34;6065996;23;20355;-88
2021/07/25 08:00:50;;;;;;;18.25;14.00;;;;;;;22.83;65.51;99098.41;6065919;23;20029;-87
2021/07/25 08:03:17;;;;;;;18.17;14.43;;;;;;;22.91;65.21;99101.00;6065323;23;20023;-86
2021/07/25 08:05:45;;;;;;;18.80;15.07;;;;;;;22.99;64.40;99101.94;6065061;23;20027;-85
2021/07/25 08:08:11;;;;;;;21.00;14.38;;;;;;;23.07;64.08;99115.28;6066604;23;20479;-87
2021/07/25 08:10:38;;;;;;;18.15;13.93;;;;;;;23.14;64.17;99113.50;6065806;23;20073;-88
2021/07/25 08:13:08;;;;;;;16.13;11.68;;;;;;;23.20;64.21;99114.63;6066412;23;20030;-86
2021/07/25 08:15:34;;;;;;;16.40;12.43;;;;;;;23.25;63.51;99112.19;6066958;23;20030;-86
2021/07/25 08:18:01;;;;;;;13.90;11.85;;;;;;;23.33;63.08;99107.75;6065147;23;20031;-86
2021/07/25 08:20:29;;;;;;;13.93;11.18;;;;;;;23.39;63.49;99110.56;6067326;23;20031;-87
2021/07/25 08:22:55;;;;;;;14.05;10.15;;;;;;;23.49;63.28;99112.94;6066071;23;20022;-86
2021/07/25 08:25:22;;;;;;;11.95;9.30;;;;;;;23.59;63.35;99114.50;6067540;23;20034;-88
2021/07/25 08:27:59;;;;;;;11.52;8.40;;;;;;;23.71;63.17;99112.16;6066439;23;20106;-87
2021/07/25 08:30:27;;;;;;;15.95;10.43;;;;;;;23.84;62.96;99114.16;6065051;23;20023;-83
2021/07/25 08:32:53;;;;;;;11.20;8.73;;;;;;;23.95;62.83;99108.28;6064804;23;20034;-86
2021/07/25 08:35:20;;;;;;;13.43;9.25;;;;;;;24.07;61.69;99108.63;6041861;23;20031;-85
2021/07/25 08:37:47;;;;;;;12.75;8.77;;;;;;;24.18;61.33;99116.19;6065942;23;20035;-84
2021/07/25 08:40:17;;;;;;;12.13;8.30;;;;;;;24.26;61.42;99109.81;6066486;23;20486;-89
2021/07/25 08:43:12;;;;;;;10.05;7.90;;;;;;;24.32;61.39;99117.16;6066447;23;20027;-89
2021/07/25 08:45:41;;;;;;;9.60;7.30;;;;;;;24.49;60.83;99122.25;6064635;23;20098;-88
2021/07/25 08:48:17;;;;;;;9.32;7.20;;;;;;;24.56;60.08;99119.59;6066349;23;20498;-88
2021/07/25 08:50:49;;;;;;;7.45;6.25;;;;;;;24.67;60.30;99121.75;6066824;23;20031;-88
2021/07/25 08:53:18;;;;;;;7.73;6.93;;;;;;;24.74;59.44;99124.47;6065135;23;20094;-84
2021/07/25 08:55:46;;;;;;;9.55;6.47;;;;;;;24.82;59.31;99135.09;6066113;23;20243;-86
2021/07/25 08:58:13;;;;;;;7.65;6.03;;;;;;;24.90;59.82;99136.03;6066853;23;20451;-88
2021/07/25 09:00:41;;;;;;;8.85;7.30;;;;;;;24.96;59.38;99130.69;6064850;23;20023;-86
2021/07/25 09:03:09;;;;;;;9.30;7.25;;;;;;;25.05;59.21;99135.91;6065122;23;20062;-88
2021/07/25 09:05:42;;;;;;;10.75;7.85;;;;;;;25.12;59.54;99131.41;6065651;23;20105;-88
2021/07/25 09:08:10;;;;;;;9.27;7.38;;;;;;;25.23;59.18;99136.22;6065230;23;20082;-89
2021/07/25 09:10:40;;;;;;;11.90;6.75;;;;;;;25.31;59.50;99135.19;6066631;23;20029;-88
2021/07/25 09:13:09;;;;;;;13.77;8.25;;;;;;;25.45;58.68;99137.97;6065447;23;20034;-87
2021/07/25 09:15:37;;;;;;;9.65;7.25;;;;;;;25.59;60.42;99122.72;6064607;23;20019;-86
2021/07/25 09:18:05;;;;;;;11.48;8.02;;;;;;;25.75;59.98;99135.00;6066109;23;20031;-87
2021/07/25 09:20:49;;;;;;;8.77;6.82;;;;;;;25.86;56.68;99131.72;6065083;23;20460;-83
2021/07/25 09:23:19;;;;;;;7.57;6.78;;;;;;;26.02;56.81;99135.91;6065988;23;20027;-86
2021/07/25 09:25:53;;;;;;;7.13;6.30;;;;;;;26.10;56.12;99142.97;6066093;23;20026;-87
2021/07/25 09:28:23;;;;;;;10.15;7.50;;;;;;;26.17;55.97;99140.28;6064488;23;20026;-84
2021/07/25 09:30:50;;;;;;;8.80;6.88;;;;;;;26.21;56.00;99135.31;6065083;23;20027;-87
2021/07/25 09:33:29;;;;;;;9.57;6.78;;;;;;;26.19;55.33;99135.50;6064723;23;20023;-89
2021/07/25 09:36:05;;;;;;;11.15;7.38;;;;;;;26.22;55.01;99136.97;6066034;23;20034;-87
2021/07/25 09:38:32;;;;;;;8.55;6.88;;;;;;;26.28;55.77;99138.88;6064800;23;20026;-89
2021/07/25 09:40:58;;;;;;;9.88;6.82;;;;;;;26.33;57.13;99139.09;6065810;23;20026;-88
2021/07/25 09:43:25;;;;;;;8.73;6.68;;;;;;;26.41;57.11;99138.03;6065462;23;20042;-87
2021/07/25 09:48:33;;;;;;;8.55;7.18;;;;;;;26.58;55.07;99133.06;6064614;23;20038;-87
2021/07/25 09:51:01;;;;;;;7.68;6.90;;;;;;;26.73;55.54;99132.03;6066133;23;20027;-86
2021/07/25 09:53:44;;;;;;;10.20;7.13;;;;;;;26.84;54.53;99134.09;6065912;23;20027;-85
2021/07/25 09:56:16;;;;;;;8.35;6.50;;;;;;;26.92;53.75;99133.84;6064537;23;20022;-87
2021/07/25 09:58:44;;;;;;;7.82;6.82;;;;;;;27.00;54.64;99129.31;6064404;23;20030;-87
2021/07/25 10:01:31;;;;;;;8.07;6.90;;;;;;;27.09;55.72;99135.31;6064945;23;20037;-87
2021/07/25 10:04:10;;;;;;;8.45;7.57;;;;;;;27.17;55.29;99135.91;6065475;23;20418;-87
2021/07/25 10:06:43;;;;;;;8.68;7.18;;;;;;;27.32;55.14;99132.09;6064430;23;20030;-88
2021/07/25 10:09:12;;;;;;;9.18;8.15;;;;;;;27.44;55.93;99133.09;6065675;23;20029;-87
2021/07/25 10:11:47;;;;;;;7.82;7.03;;;;;;;27.58;53.74;99125.78;6063608;23;20550;-88
2021/07/25 10:14:19;;;;;;;9.57;7.18;;;;;;;27.72;53.19;99133.84;6062069;23;20026;-87
2021/07/25 10:16:52;;;;;;;7.47;6.78;;;;;;;27.87;52.78;99132.72;6065156;23;20079;-87
2021/07/25 10:19:36;;;;;;;7.50;6.72;;;;;;;27.97;53.24;99133.91;6066544;23;20022;-87
2021/07/25 10:22:12;;;;;;;10.27;7.97;;;;;;;28.12;52.94;99129.25;6063549;23;20027;-86
2021/07/25 10:24:40;;;;;;;7.50;6.80;;;;;;;28.27;52.57;99128.97;6064983;23;20425;-86
2021/07/25 10:27:07;;;;;;;10.32;8.07;;;;;;;28.40;52.87;99126.13;6065731;23;20030;-90
2021/07/25 10:29:38;;;;;;;8.10;7.40;;;;;;;28.53;52.13;99132.50;6065128;23;20027;-89
2021/07/25 10:32:07;;;;;;;9.30;8.40;;;;;;;28.66;52.18;99134.28;6062878;23;20037;-89
2021/07/25 10:34:36;;;;;;;10.35;9.30;;;;;;;28.78;51.44;99137.06;6066284;23;20258;-88
2021/07/25 10:37:04;;;;;;;10.45;9.40;;;;;;;28.90;53.06;99135.31;6062907;23;20371;-86
2021/07/25 10:39:36;;;;;;;8.70;7.93;;;;;;;29.02;52.19;99134.56;6066418;23;20031;-90
2021/07/25 10:42:04;;;;;;;10.05;9.05;;;;;;;29.11;51.77;99134.03;6065809;23;20355;-89
2021/07/25 10:44:32;;;;;;;11.65;10.45;;;;;;;29.16;50.12;99136.09;6063044;23;20030;-90
2021/07/25 10:47:17;;;;;;;11.00;9.90;;;;;;;29.14;50.84;99135.47;6064877;23;20023;-89
2021/07/25 10:49:44;;;;;;;9.15;8.35;;;;;;;29.22;50.45;99137.88;6065434;23;20031;-89
2021/07/25 10:52:11;;;;;;;10.15;9.15;;;;;;;29.30;50.47;99141.34;6063723;23;20032;-85
2021/07/25 10:54:48;;;;;;;10.38;9.45;;;;;;;29.39;50.76;99137.28;6064834;23;20034;-87
2021/07/25 10:57:15;;;;;;;10.38;9.27;;;;;;;29.62;51.87;99144.75;6063284;23;20050;-84
2021/07/25 10:59:46;;;;;;;10.68;9.57;;;;;;;29.84;48.84;99149.66;6065808;23;20023;-89
2021/07/25 11:02:50;;;;;;;9.02;8.23;;;;;;;30.08;49.74;99136.16;6063586;23;20085;-87
2021/07/25 11:05:18;;;;;;;9.00;8.18;;;;;;;30.45;49.82;99140.63;6055888;23;20045;-85
2021/07/25 11:07:57;;;;;;;10.43;8.43;;;;;;;30.73;49.14;99139.16;6065043;23;20023;-87
2021/07/25 11:10:35;;;;;;;10.93;7.53;;;;;;;31.14;49.85;99143.84;6063603;23;20030;-88
2021/07/25 11:13:02;;;;;;;7.70;6.43;;;;;;;31.52;47.51;99134.31;6064894;23;20033;-88
2021/07/25 11:15:30;;;;;;;7.60;6.80;;;;;;;31.79;46.52;99141.91;6066034;23;20042;-88
2021/07/25 11:18:07;;;;;;;7.25;6.55;;;;;;;32.03;45.64;99138.28;6064977;23;20023;-89
2021/07/25 11:20:39;;;;;;;10.23;6.82;;;;;;;32.35;46.96;99138.53;6064740;23;20034;-87
2021/07/25 11:23:18;;;;;;;5.95;5.43;;;;;;;32.75;46.34;99133.16;6064945;23;20090;-89
2021/07/25 11:25:47;;;;;;;6.30;5.32;;;;;;;33.17;44.54;99139.19;6066776;23;20027;-88
2021/07/25 11:28:40;;;;;;;6.50;4.82;;;;;;;33.44;44.25;99138.47;6064947;23;20033;-88
2021/07/25 11:31:11;;;;;;;6.35;5.60;;;;;;;33.76;42.91;99140.47;6064806;23;20026;-87
2021/07/25 11:33:38;;;;;;;6.55;5.45;;;;;;;34.02;43.40;99133.38;6066397;23;20109;-88
2021/07/25 11:36:06;;;;;;;5.35;4.85;;;;;;;34.32;41.89;99136.63;6064344;23;20026;-87